sensor_id;sensor_type;location;lat;lon;timestamp;P1;durP1;ratioP1;P2;durP2;ratioP2
29414;SDS011;20303;48.302;11.914;2022-11-15T00:04:25;12.63;;;9.23;;
29414;SDS011;20303;48.302;11.914;2022-11-15T00:14:26;12.23;;;9.07;;
29414;SDS011;20303;48.302;11.914;2022-11-15T00:24:27;12.80;;;8.88;;
29414;SDS011;20303;48.302;11.914;2022-11-15T00:34:28;11.70;;;8.80;;
29414;SDS011;20303;48.302;11.914;2022-11-15T00:44:29;12.20;;;8.90;;
29414;SDS011;20303;48.302;11.914;2022-11-15T00:54:30;12.65;;;8.68;;
29414;SDS011;20303;48.302;11.914;2022-11-15T01:04:31;11.35;;;8.55;;
29414;SDS011;20303;48.302;11.914;2022-11-15T01:14:32;11.00;;;8.15;;
29414;SDS011;20303;48.302;11.914;2022-11-15T01:24:33;11.07;;;8.02;;
29414;SDS011;20303;48.302;11.914;2022-11-15T01:34:34;10.90;;;7.80;;
29414;SDS011;20303;48.302;11.914;2022-11-15T01:44:43;10.75;;;8.00;;
29414;SDS011;20303;48.302;11.914;2022-11-15T01:54:50;9.82;;;7.47;;
29414;SDS011;20303;48.302;11.914;2022-11-15T02:04:55;9.93;;;7.18;;
29414;SDS011;20303;48.302;11.914;2022-11-15T02:14:56;9.27;;;6.78;;
29414;SDS011;20303;48.302;11.914;2022-11-15T02:35:32;9.95;;;7.22;;
29414;SDS011;20303;48.302;11.914;2022-11-15T02:45:48;9.00;;;6.75;;
29414;SDS011;20303;48.302;11.914;2022-11-15T02:55:52;8.30;;;6.32;;
29414;SDS011;20303;48.302;11.914;2022-11-15T03:16:34;7.82;;;5.97;;
29414;SDS011;20303;48.302;11.914;2022-11-15T03:26:42;7.85;;;5.65;;
29414;SDS011;20303;48.302;11.914;2022-11-15T03:36:45;7.35;;;5.45;;
29414;SDS011;20303;48.302;11.914;2022-11-15T03:46:47;6.97;;;5.40;;
29414;SDS011;20303;48.302;11.914;2022-11-15T03:56:59;7.35;;;5.53;;
29414;SDS011;20303;48.302;11.914;2022-11-15T04:07:00;7.13;;;5.50;;
29414;SDS011;20303;48.302;11.914;2022-11-15T04:17:01;6.35;;;5.00;;
29414;SDS011;20303;48.302;11.914;2022-11-15T04:27:02;6.15;;;4.75;;
29414;SDS011;20303;48.302;11.914;2022-11-15T04:37:03;6.50;;;4.97;;
29414;SDS011;20303;48.302;11.914;2022-11-15T04:47:13;5.85;;;4.50;;
29414;SDS011;20303;48.302;11.914;2022-11-15T04:57:14;5.68;;;4.60;;
29414;SDS011;20303;48.302;11.914;2022-11-15T05:07:15;5.20;;;4.18;;
29414;SDS011;20303;48.302;11.914;2022-11-15T05:17:16;5.20;;;4.15;;
29414;SDS011;20303;48.302;11.914;2022-11-15T05:37:18;4.70;;;4.00;;
29414;SDS011;20303;48.302;11.914;2022-11-15T05:47:20;4.80;;;3.85;;
29414;SDS011;20303;48.302;11.914;2022-11-15T05:57:23;4.47;;;3.80;;
29414;SDS011;20303;48.302;11.914;2022-11-15T06:07:24;4.55;;;3.80;;
29414;SDS011;20303;48.302;11.914;2022-11-15T06:27:26;4.53;;;3.43;;
29414;SDS011;20303;48.302;11.914;2022-11-15T06:47:28;4.67;;;3.20;;
29414;SDS011;20303;48.302;11.914;2022-11-15T07:07:32;4.82;;;3.30;;
29414;SDS011;20303;48.302;11.914;2022-11-15T07:27:34;4.87;;;4.07;;
29414;SDS011;20303;48.302;11.914;2022-11-15T07:37:35;5.68;;;4.30;;
29414;SDS011;20303;48.302;11.914;2022-11-15T07:57:37;5.97;;;4.37;;
29414;SDS011;20303;48.302;11.914;2022-11-15T08:07:38;6.00;;;4.70;;
29414;SDS011;20303;48.302;11.914;2022-11-15T08:17:40;6.30;;;4.75;;
29414;SDS011;20303;48.302;11.914;2022-11-15T08:27:41;6.25;;;4.95;;
29414;SDS011;20303;48.302;11.914;2022-11-15T08:37:42;6.40;;;4.90;;
29414;SDS011;20303;48.302;11.914;2022-11-15T08:47:43;6.68;;;5.35;;
29414;SDS011;20303;48.302;11.914;2022-11-15T08:57:45;7.47;;;5.85;;
29414;SDS011;20303;48.302;11.914;2022-11-15T09:07:46;7.90;;;5.90;;
29414;SDS011;20303;48.302;11.914;2022-11-15T09:17:47;7.88;;;5.82;;
29414;SDS011;20303;48.302;11.914;2022-11-15T09:27:48;8.32;;;6.32;;
29414;SDS011;20303;48.302;11.914;2022-11-15T09:37:49;8.43;;;6.55;;
29414;SDS011;20303;48.302;11.914;2022-11-15T09:58:53;8.43;;;6.78;;
29414;SDS011;20303;48.302;11.914;2022-11-15T10:08:58;8.98;;;7.03;;
29414;SDS011;20303;48.302;11.914;2022-11-15T10:29:33;9.15;;;7.00;;
29414;SDS011;20303;48.302;11.914;2022-11-15T10:39:34;8.25;;;7.03;;
29414;SDS011;20303;48.302;11.914;2022-11-15T10:49:36;8.57;;;7.18;;
29414;SDS011;20303;48.302;11.914;2022-11-15T10:59:38;7.95;;;6.50;;
29414;SDS011;20303;48.302;11.914;2022-11-15T11:09:48;7.55;;;6.70;;
29414;SDS011;20303;48.302;11.914;2022-11-15T11:30:07;7.80;;;6.40;;
29414;SDS011;20303;48.302;11.914;2022-11-15T11:40:20;7.50;;;6.10;;
29414;SDS011;20303;48.302;11.914;2022-11-15T11:50:25;7.03;;;5.90;;
29414;SDS011;20303;48.302;11.914;2022-11-15T12:00:27;7.03;;;6.03;;
29414;SDS011;20303;48.302;11.914;2022-11-15T12:10:35;7.72;;;5.90;;
29414;SDS011;20303;48.302;11.914;2022-11-15T12:20:37;6.85;;;5.88;;
29414;SDS011;20303;48.302;11.914;2022-11-15T12:30:52;6.10;;;5.32;;
29414;SDS011;20303;48.302;11.914;2022-11-15T12:41:12;6.00;;;5.22;;
29414;SDS011;20303;48.302;11.914;2022-11-15T12:51:15;6.22;;;5.20;;
29414;SDS011;20303;48.302;11.914;2022-11-15T13:11:41;5.78;;;5.03;;
29414;SDS011;20303;48.302;11.914;2022-11-15T13:21:47;5.65;;;4.90;;
29414;SDS011;20303;48.302;11.914;2022-11-15T13:32:11;5.55;;;4.70;;
29414;SDS011;20303;48.302;11.914;2022-11-15T13:42:17;5.28;;;4.75;;
29414;SDS011;20303;48.302;11.914;2022-11-15T13:52:19;5.38;;;4.82;;
29414;SDS011;20303;48.302;11.914;2022-11-15T14:02:25;5.22;;;4.68;;
29414;SDS011;20303;48.302;11.914;2022-11-15T14:12:31;5.53;;;4.82;;
29414;SDS011;20303;48.302;11.914;2022-11-15T14:22:34;4.90;;;4.40;;
29414;SDS011;20303;48.302;11.914;2022-11-15T14:32:44;5.25;;;4.40;;
29414;SDS011;20303;48.302;11.914;2022-11-15T14:42:47;4.82;;;4.32;;
29414;SDS011;20303;48.302;11.914;2022-11-15T14:52:48;5.07;;;4.43;;
29414;SDS011;20303;48.302;11.914;2022-11-15T15:02:51;5.05;;;4.20;;
29414;SDS011;20303;48.302;11.914;2022-11-15T15:12:53;4.95;;;4.30;;
29414;SDS011;20303;48.302;11.914;2022-11-15T15:22:54;4.47;;;3.88;;
29414;SDS011;20303;48.302;11.914;2022-11-15T15:32:55;4.53;;;4.13;;
29414;SDS011;20303;48.302;11.914;2022-11-15T15:42:57;4.80;;;4.30;;
29414;SDS011;20303;48.302;11.914;2022-11-15T15:53:00;4.55;;;3.97;;
29414;SDS011;20303;48.302;11.914;2022-11-15T16:03:03;4.30;;;3.88;;
29414;SDS011;20303;48.302;11.914;2022-11-15T16:13:04;4.55;;;4.03;;
29414;SDS011;20303;48.302;11.914;2022-11-15T16:23:06;5.80;;;4.25;;
29414;SDS011;20303;48.302;11.914;2022-11-15T16:33:08;4.75;;;3.95;;
29414;SDS011;20303;48.302;11.914;2022-11-15T16:43:10;4.63;;;4.10;;
29414;SDS011;20303;48.302;11.914;2022-11-15T16:53:11;4.85;;;4.15;;
29414;SDS011;20303;48.302;11.914;2022-11-15T17:03:12;4.50;;;3.83;;
29414;SDS011;20303;48.302;11.914;2022-11-15T17:13:13;5.25;;;3.80;;
29414;SDS011;20303;48.302;11.914;2022-11-15T17:23:14;4.78;;;3.92;;
29414;SDS011;20303;48.302;11.914;2022-11-15T17:33:16;4.90;;;4.30;;
29414;SDS011;20303;48.302;11.914;2022-11-15T17:43:17;4.50;;;3.97;;
29414;SDS011;20303;48.302;11.914;2022-11-15T17:53:18;5.05;;;4.20;;
29414;SDS011;20303;48.302;11.914;2022-11-15T18:03:19;5.03;;;4.20;;
29414;SDS011;20303;48.302;11.914;2022-11-15T18:13:20;5.20;;;4.45;;
29414;SDS011;20303;48.302;11.914;2022-11-15T18:23:21;5.07;;;4.47;;
29414;SDS011;20303;48.302;11.914;2022-11-15T18:33:22;4.93;;;4.43;;
29414;SDS011;20303;48.302;11.914;2022-11-15T18:43:23;4.82;;;4.32;;
29414;SDS011;20303;48.302;11.914;2022-11-15T18:53:24;4.90;;;4.40;;
29414;SDS011;20303;48.302;11.914;2022-11-15T19:03:25;5.43;;;4.70;;
29414;SDS011;20303;48.302;11.914;2022-11-15T19:13:29;5.63;;;4.80;;
29414;SDS011;20303;48.302;11.914;2022-11-15T19:23:34;6.53;;;5.30;;
29414;SDS011;20303;48.302;11.914;2022-11-15T19:33:36;5.90;;;5.10;;
29414;SDS011;20303;48.302;11.914;2022-11-15T19:43:37;6.18;;;5.20;;
29414;SDS011;20303;48.302;11.914;2022-11-15T19:53:39;6.18;;;5.50;;
29414;SDS011;20303;48.302;11.914;2022-11-15T20:03:40;6.63;;;5.60;;
29414;SDS011;20303;48.302;11.914;2022-11-15T20:13:42;7.40;;;5.68;;
29414;SDS011;20303;48.302;11.914;2022-11-15T20:23:43;8.45;;;5.95;;
29414;SDS011;20303;48.302;11.914;2022-11-15T20:33:44;7.82;;;6.10;;
29414;SDS011;20303;48.302;11.914;2022-11-15T20:43:45;8.15;;;6.53;;
29414;SDS011;20303;48.302;11.914;2022-11-15T20:53:46;8.10;;;6.20;;
29414;SDS011;20303;48.302;11.914;2022-11-15T21:03:47;8.48;;;6.40;;
29414;SDS011;20303;48.302;11.914;2022-11-15T21:13:52;7.82;;;6.32;;
29414;SDS011;20303;48.302;11.914;2022-11-15T21:23:53;8.20;;;6.82;;
29414;SDS011;20303;48.302;11.914;2022-11-15T21:33:54;8.90;;;6.85;;
29414;SDS011;20303;48.302;11.914;2022-11-15T21:43:59;8.18;;;6.80;;
29414;SDS011;20303;48.302;11.914;2022-11-15T21:54:00;8.15;;;6.70;;
29414;SDS011;20303;48.302;11.914;2022-11-15T22:04:02;8.35;;;6.53;;
29414;SDS011;20303;48.302;11.914;2022-11-15T22:14:05;8.48;;;6.70;;
29414;SDS011;20303;48.302;11.914;2022-11-15T22:24:06;9.00;;;6.75;;
29414;SDS011;20303;48.302;11.914;2022-11-15T22:34:07;8.60;;;6.75;;
29414;SDS011;20303;48.302;11.914;2022-11-15T22:44:08;8.63;;;6.72;;
29414;SDS011;20303;48.302;11.914;2022-11-15T22:54:09;8.90;;;6.78;;
29414;SDS011;20303;48.302;11.914;2022-11-15T23:04:10;8.65;;;6.85;;
29414;SDS011;20303;48.302;11.914;2022-11-15T23:14:11;8.18;;;6.68;;
29414;SDS011;20303;48.302;11.914;2022-11-15T23:24:13;9.07;;;7.00;;
29414;SDS011;20303;48.302;11.914;2022-11-15T23:34:15;8.82;;;6.90;;
29414;SDS011;20303;48.302;11.914;2022-11-15T23:44:16;8.07;;;6.60;;
29414;SDS011;20303;48.302;11.914;2022-11-15T23:54:17;7.60;;;6.35;;
